sensor_id;sensor_type;location;lat;lon;timestamp;pressure;altitude;pressure_sealevel;temperature
70668;BMP280;58242;51.250;-1.118;2023-02-11T00:00:29;102277.31;;;14.06
70668;BMP280;58242;51.250;-1.118;2023-02-11T00:02:54;102278.94;;;14.07
70668;BMP280;58242;51.250;-1.118;2023-02-11T00:05:19;102287.81;;;14.08
70668;BMP280;58242;51.250;-1.118;2023-02-11T00:07:45;102282.16;;;14.09
70668;BMP280;58242;51.250;-1.118;2023-02-11T00:10:10;102268.69;;;14.09
70668;BMP280;58242;51.250;-1.118;2023-02-11T00:12:35;102268.69;;;14.09
70668;BMP280;58242;51.250;-1.118;2023-02-11T00:15:02;102258.22;;;14.08
70668;BMP280;58242;51.250;-1.118;2023-02-11T00:17:27;102267.69;;;14.05
70668;BMP280;58242;51.250;-1.118;2023-02-11T00:19:52;102261.28;;;14.02
70668;BMP280;58242;51.250;-1.118;2023-02-11T00:22:18;102265.06;;;14.01
70668;BMP280;58242;51.250;-1.118;2023-02-11T00:24:44;102253.50;;;14.00
70668;BMP280;58242;51.250;-1.118;2023-02-11T00:27:09;102261.28;;;14.02
70668;BMP280;58242;51.250;-1.118;2023-02-11T00:29:35;102260.97;;;14.03
70668;BMP280;58242;51.250;-1.118;2023-02-11T00:32:01;102267.69;;;14.05
70668;BMP280;58242;51.250;-1.118;2023-02-11T00:34:32;102267.38;;;14.07
70668;BMP280;58242;51.250;-1.118;2023-02-11T00:36:58;102263.31;;;14.09
70668;BMP280;58242;51.250;-1.118;2023-02-11T00:39:24;102268.09;;;14.12
70668;BMP280;58242;51.250;-1.118;2023-02-11T00:41:50;102263.22;;;14.14
70668;BMP280;58242;51.250;-1.118;2023-02-11T00:44:15;102262.13;;;14.15
70668;BMP280;58242;51.250;-1.118;2023-02-11T00:46:40;102266.41;;;14.16
70668;BMP280;58242;51.250;-1.118;2023-02-11T00:49:06;102273.28;;;14.22
70668;BMP280;58242;51.250;-1.118;2023-02-11T00:51:31;102264.13;;;14.23
70668;BMP280;58242;51.250;-1.118;2023-02-11T00:53:56;102273.22;;;14.27
70668;BMP280;58242;51.250;-1.118;2023-02-11T00:56:22;102275.31;;;14.30
70668;BMP280;58242;51.250;-1.118;2023-02-11T00:58:47;102281.69;;;14.34
70668;BMP280;58242;51.250;-1.118;2023-02-11T01:01:13;102281.09;;;14.37
70668;BMP280;58242;51.250;-1.118;2023-02-11T01:03:39;102273.22;;;14.40
70668;BMP280;58242;51.250;-1.118;2023-02-11T01:06:06;102262.19;;;14.41
70668;BMP280;58242;51.250;-1.118;2023-02-11T01:08:32;102258.41;;;14.42
70668;BMP280;58242;51.250;-1.118;2023-02-11T01:11:00;102272.34;;;14.44
70668;BMP280;58242;51.250;-1.118;2023-02-11T01:13:27;102277.72;;;14.44
70668;BMP280;58242;51.250;-1.118;2023-02-11T01:15:52;102288.22;;;14.46
70668;BMP280;58242;51.250;-1.118;2023-02-11T01:18:18;102289.50;;;14.48
70668;BMP280;58242;51.250;-1.118;2023-02-11T01:20:43;102285.72;;;14.49
70668;BMP280;58242;51.250;-1.118;2023-02-11T01:23:09;102277.66;;;14.49
70668;BMP280;58242;51.250;-1.118;2023-02-11T01:25:34;102275.44;;;14.51
70668;BMP280;58242;51.250;-1.118;2023-02-11T01:27:59;102267.38;;;14.51
70668;BMP280;58242;51.250;-1.118;2023-02-11T01:30:25;102270.56;;;14.53
70668;BMP280;58242;51.250;-1.118;2023-02-11T01:32:50;102266.81;;;14.54
70668;BMP280;58242;51.250;-1.118;2023-02-11T01:35:15;102261.41;;;14.54
70668;BMP280;58242;51.250;-1.118;2023-02-11T01:37:41;102256.31;;;14.53
70668;BMP280;58242;51.250;-1.118;2023-02-11T01:40:11;102260.09;;;14.52
70668;BMP280;58242;51.250;-1.118;2023-02-11T01:42:36;102258.00;;;14.49
70668;BMP280;58242;51.250;-1.118;2023-02-11T01:48:06;102259.41;;;14.46
70668;BMP280;58242;51.250;-1.118;2023-02-11T01:50:32;102264.47;;;14.48
70668;BMP280;58242;51.250;-1.118;2023-02-11T01:52:58;102253.50;;;14.44
70668;BMP280;58242;51.250;-1.118;2023-02-11T01:55:43;102242.53;;;14.41
70668;BMP280;58242;51.250;-1.118;2023-02-11T01:58:30;102240.16;;;14.39
70668;BMP280;58242;51.250;-1.118;2023-02-11T02:00:57;102239.66;;;14.37
70668;BMP280;58242;51.250;-1.118;2023-02-11T02:03:24;102238.03;;;14.37
70668;BMP280;58242;51.250;-1.118;2023-02-11T02:06:01;102244.22;;;14.37
70668;BMP280;58242;51.250;-1.118;2023-02-11T02:11:04;102232.78;;;14.32
70668;BMP280;58242;51.250;-1.118;2023-02-11T02:13:31;102228.47;;;14.31
70668;BMP280;58242;51.250;-1.118;2023-02-11T02:16:10;102225.88;;;14.26
70668;BMP280;58242;51.250;-1.118;2023-02-11T02:21:53;102234.00;;;14.08
70668;BMP280;58242;51.250;-1.118;2023-02-11T02:24:48;102226.59;;;14.00
70668;BMP280;58242;51.250;-1.118;2023-02-11T02:27:36;102234.47;;;13.97
70668;BMP280;58242;51.250;-1.118;2023-02-11T02:38:55;102239.13;;;13.73
70668;BMP280;58242;51.250;-1.118;2023-02-11T02:41:26;102227.09;;;13.71
70668;BMP280;58242;51.250;-1.118;2023-02-11T02:43:53;102230.03;;;13.69
70668;BMP280;58242;51.250;-1.118;2023-02-11T02:46:22;102228.97;;;13.70
70668;BMP280;58242;51.250;-1.118;2023-02-11T02:48:48;102224.41;;;13.71
70668;BMP280;58242;51.250;-1.118;2023-02-11T02:56:45;102221.03;;;13.79
70668;BMP280;58242;51.250;-1.118;2023-02-11T02:59:27;102224.47;;;13.84
70668;BMP280;58242;51.250;-1.118;2023-02-11T03:04:56;102221.31;;;13.95
70668;BMP280;58242;51.250;-1.118;2023-02-11T03:10:27;102208.19;;;14.07
70668;BMP280;58242;51.250;-1.118;2023-02-11T03:12:53;102208.13;;;14.12
70668;BMP280;58242;51.250;-1.118;2023-02-11T03:15:21;102204.81;;;14.15
70668;BMP280;58242;51.250;-1.118;2023-02-11T03:17:50;102205.03;;;14.18
70668;BMP280;58242;51.250;-1.118;2023-02-11T03:20:18;102202.53;;;14.21
70668;BMP280;58242;51.250;-1.118;2023-02-11T03:22:49;102202.25;;;14.23
70668;BMP280;58242;51.250;-1.118;2023-02-11T03:25:18;102208.63;;;14.27
70668;BMP280;58242;51.250;-1.118;2023-02-11T03:27:53;102207.75;;;14.31
70668;BMP280;58242;51.250;-1.118;2023-02-11T03:30:27;102206.88;;;14.36
70668;BMP280;58242;51.250;-1.118;2023-02-11T03:33:04;102204.06;;;14.40
70668;BMP280;58242;51.250;-1.118;2023-02-11T03:35:36;102202.38;;;14.44
70668;BMP280;58242;51.250;-1.118;2023-02-11T03:38:10;102200.69;;;14.48
70668;BMP280;58242;51.250;-1.118;2023-02-11T03:40:38;102208.16;;;14.51
70668;BMP280;58242;51.250;-1.118;2023-02-11T03:43:17;102200.06;;;14.51
70668;BMP280;58242;51.250;-1.118;2023-02-11T03:45:44;102198.69;;;14.40
70668;BMP280;58242;51.250;-1.118;2023-02-11T03:48:15;102208.88;;;14.43
70668;BMP280;58242;51.250;-1.118;2023-02-11T03:50:41;102215.34;;;14.42
70668;BMP280;58242;51.250;-1.118;2023-02-11T03:53:08;102209.66;;;14.44
70668;BMP280;58242;51.250;-1.118;2023-02-11T03:55:37;102213.34;;;14.48
70668;BMP280;58242;51.250;-1.118;2023-02-11T03:58:03;102208.75;;;14.48
70668;BMP280;58242;51.250;-1.118;2023-02-11T04:00:34;102216.84;;;14.48
70668;BMP280;58242;51.250;-1.118;2023-02-11T04:02:59;102214.47;;;14.47
70668;BMP280;58242;51.250;-1.118;2023-02-11T04:05:25;102219.53;;;14.48
70668;BMP280;58242;51.250;-1.118;2023-02-11T04:07:50;102218.72;;;14.48
70668;BMP280;58242;51.250;-1.118;2023-02-11T04:10:16;102219.53;;;14.48
70668;BMP280;58242;51.250;-1.118;2023-02-11T04:12:41;102218.44;;;14.49
70668;BMP280;58242;51.250;-1.118;2023-02-11T04:15:06;102216.84;;;14.48
70668;BMP280;58242;51.250;-1.118;2023-02-11T04:17:32;102214.94;;;14.49
70668;BMP280;58242;51.250;-1.118;2023-02-11T04:19:57;102224.63;;;14.50
70668;BMP280;58242;51.250;-1.118;2023-02-11T04:22:23;102207.38;;;14.51
70668;BMP280;58242;51.250;-1.118;2023-02-11T04:24:48;102223.22;;;14.52
70668;BMP280;58242;51.250;-1.118;2023-02-11T04:27:13;102224.81;;;14.53
70668;BMP280;58242;51.250;-1.118;2023-02-11T04:29:39;102221.03;;;14.54
70668;BMP280;58242;51.250;-1.118;2023-02-11T04:32:04;102225.31;;;14.55
70668;BMP280;58242;51.250;-1.118;2023-02-11T04:34:29;102223.72;;;14.54
70668;BMP280;58242;51.250;-1.118;2023-02-11T04:36:55;102226.09;;;14.55
70668;BMP280;58242;51.250;-1.118;2023-02-11T04:39:20;102231.50;;;14.55
70668;BMP280;58242;51.250;-1.118;2023-02-11T04:41:45;102225.03;;;14.56
70668;BMP280;58242;51.250;-1.118;2023-02-11T04:44:11;102229.00;;;14.59
70668;BMP280;58242;51.250;-1.118;2023-02-11T04:46:36;102219.03;;;14.59
70668;BMP280;58242;51.250;-1.118;2023-02-11T04:49:01;102230.31;;;14.61
70668;BMP280;58242;51.250;-1.118;2023-02-11T04:51:27;102236.97;;;14.64
70668;BMP280;58242;51.250;-1.118;2023-02-11T04:53:52;102244.47;;;14.67
70668;BMP280;58242;51.250;-1.118;2023-02-11T04:56:17;102244.97;;;14.69
70668;BMP280;58242;51.250;-1.118;2023-02-11T04:58:43;102249.75;;;14.71
70668;BMP280;58242;51.250;-1.118;2023-02-11T05:01:10;102244.38;;;14.71
70668;BMP280;58242;51.250;-1.118;2023-02-11T05:03:36;102253.25;;;14.72
70668;BMP280;58242;51.250;-1.118;2023-02-11T05:06:01;102254.06;;;14.72
70668;BMP280;58242;51.250;-1.118;2023-02-11T05:08:27;102248.94;;;14.71
70668;BMP280;58242;51.250;-1.118;2023-02-11T05:10:52;102245.78;;;14.69
70668;BMP280;58242;51.250;-1.118;2023-02-11T05:13:17;102240.19;;;14.66
70668;BMP280;58242;51.250;-1.118;2023-02-11T05:15:43;102252.84;;;14.65
70668;BMP280;58242;51.250;-1.118;2023-02-11T05:18:08;102255.03;;;14.63
70668;BMP280;58242;51.250;-1.118;2023-02-11T05:20:33;102265.78;;;14.63
70668;BMP280;58242;51.250;-1.118;2023-02-11T05:22:59;102266.88;;;14.62
70668;BMP280;58242;51.250;-1.118;2023-02-11T05:25:24;102264.19;;;14.62
70668;BMP280;58242;51.250;-1.118;2023-02-11T05:27:49;102270.91;;;14.65
70668;BMP280;58242;51.250;-1.118;2023-02-11T05:30:15;102275.19;;;14.66
70668;BMP280;58242;51.250;-1.118;2023-02-11T05:32:40;102273.78;;;14.68
70668;BMP280;58242;51.250;-1.118;2023-02-11T05:35:06;102276.69;;;14.71
70668;BMP280;58242;51.250;-1.118;2023-02-11T05:37:32;102276.06;;;14.74
70668;BMP280;58242;51.250;-1.118;2023-02-11T05:39:57;102272.28;;;14.75
70668;BMP280;58242;51.250;-1.118;2023-02-11T05:42:22;102259.13;;;14.74
70668;BMP280;58242;51.250;-1.118;2023-02-11T05:44:48;102271.28;;;14.71
70668;BMP280;58242;51.250;-1.118;2023-02-11T05:47:13;102270.00;;;14.69
70668;BMP280;58242;51.250;-1.118;2023-02-11T05:49:38;102277.28;;;14.69
70668;BMP280;58242;51.250;-1.118;2023-02-11T05:52:04;102281.25;;;14.71
70668;BMP280;58242;51.250;-1.118;2023-02-11T05:54:29;102279.38;;;14.71
70668;BMP280;58242;51.250;-1.118;2023-02-11T05:56:54;102266.44;;;14.73
70668;BMP280;58242;51.250;-1.118;2023-02-11T05:59:20;102266.44;;;14.73
70668;BMP280;58242;51.250;-1.118;2023-02-11T06:01:45;102262.63;;;14.74
70668;BMP280;58242;51.250;-1.118;2023-02-11T06:04:10;102265.31;;;14.74
70668;BMP280;58242;51.250;-1.118;2023-02-11T06:06:36;102275.00;;;14.75
70668;BMP280;58242;51.250;-1.118;2023-02-11T06:09:02;102273.28;;;14.79
70668;BMP280;58242;51.250;-1.118;2023-02-11T06:11:27;102276.47;;;14.81
70668;BMP280;58242;51.250;-1.118;2023-02-11T06:13:52;102277.00;;;14.83
70668;BMP280;58242;51.250;-1.118;2023-02-11T06:16:18;102277.47;;;14.85
70668;BMP280;58242;51.250;-1.118;2023-02-11T06:18:43;102281.78;;;14.86
70668;BMP280;58242;51.250;-1.118;2023-02-11T06:21:09;102286.06;;;14.87
70668;BMP280;58242;51.250;-1.118;2023-02-11T06:23:35;102278.47;;;14.89
70668;BMP280;58242;51.250;-1.118;2023-02-11T06:26:05;102281.16;;;14.89
70668;BMP280;58242;51.250;-1.118;2023-02-11T06:28:31;102273.91;;;14.89
70668;BMP280;58242;51.250;-1.118;2023-02-11T06:30:57;102275.78;;;14.89
70668;BMP280;58242;51.250;-1.118;2023-02-11T06:33:23;102280.41;;;14.88
70668;BMP280;58242;51.250;-1.118;2023-02-11T06:35:48;102270.72;;;14.88
70668;BMP280;58242;51.250;-1.118;2023-02-11T06:38:14;102271.00;;;14.86
70668;BMP280;58242;51.250;-1.118;2023-02-11T06:40:39;102274.78;;;14.85
70668;BMP280;58242;51.250;-1.118;2023-02-11T06:43:04;102271.59;;;14.83
70668;BMP280;58242;51.250;-1.118;2023-02-11T06:45:30;102268.91;;;14.83
70668;BMP280;58242;51.250;-1.118;2023-02-11T06:47:55;102270.00;;;14.82
70668;BMP280;58242;51.250;-1.118;2023-02-11T06:50:20;102255.44;;;14.83
70668;BMP280;58242;51.250;-1.118;2023-02-11T06:52:46;102257.34;;;14.83
70668;BMP280;58242;51.250;-1.118;2023-02-11T06:55:11;102258.75;;;14.80
70668;BMP280;58242;51.250;-1.118;2023-02-11T06:57:37;102265.03;;;14.76
70668;BMP280;58242;51.250;-1.118;2023-02-11T07:00:02;102269.88;;;14.74
70668;BMP280;58242;51.250;-1.118;2023-02-11T07:02:28;102273.38;;;14.74
70668;BMP280;58242;51.250;-1.118;2023-02-11T07:04:53;102277.19;;;14.73
70668;BMP280;58242;51.250;-1.118;2023-02-11T07:07:18;102274.50;;;14.73
70668;BMP280;58242;51.250;-1.118;2023-02-11T07:09:45;102267.50;;;14.72
70668;BMP280;58242;51.250;-1.118;2023-02-11T07:12:10;102267.81;;;14.71
70668;BMP280;58242;51.250;-1.118;2023-02-11T07:14:36;102276.19;;;14.70
70668;BMP280;58242;51.250;-1.118;2023-02-11T07:17:01;102275.38;;;14.69
70668;BMP280;58242;51.250;-1.118;2023-02-11T07:19:29;102274.28;;;14.70
70668;BMP280;58242;51.250;-1.118;2023-02-11T07:21:54;102279.66;;;14.70
70668;BMP280;58242;51.250;-1.118;2023-02-11T07:24:19;102281.59;;;14.70
70668;BMP280;58242;51.250;-1.118;2023-02-11T07:26:45;102289.34;;;14.71
70668;BMP280;58242;51.250;-1.118;2023-02-11T07:29:10;102290.16;;;14.71
70668;BMP280;58242;51.250;-1.118;2023-02-11T07:31:35;102291.22;;;14.71
70668;BMP280;58242;51.250;-1.118;2023-02-11T07:34:01;102293.13;;;14.70
70668;BMP280;58242;51.250;-1.118;2023-02-11T07:36:28;102299.31;;;14.71
70668;BMP280;58242;51.250;-1.118;2023-02-11T07:38:53;102300.91;;;14.71
70668;BMP280;58242;51.250;-1.118;2023-02-11T07:41:21;102296.34;;;14.72
70668;BMP280;58242;51.250;-1.118;2023-02-11T07:43:47;102295.53;;;14.71
70668;BMP280;58242;51.250;-1.118;2023-02-11T07:46:16;102299.31;;;14.71
70668;BMP280;58242;51.250;-1.118;2023-02-11T07:48:41;102318.34;;;14.61
70668;BMP280;58242;51.250;-1.118;2023-02-11T07:51:19;102320.44;;;14.64
70668;BMP280;58242;51.250;-1.118;2023-02-11T07:53:45;102318.28;;;14.66
70668;BMP280;58242;51.250;-1.118;2023-02-11T07:56:12;102332.22;;;14.68
70668;BMP280;58242;51.250;-1.118;2023-02-11T07:58:38;102321.44;;;14.68
70668;BMP280;58242;51.250;-1.118;2023-02-11T08:01:07;102330.06;;;14.70
70668;BMP280;58242;51.250;-1.118;2023-02-11T08:03:34;102334.84;;;14.72
70668;BMP280;58242;51.250;-1.118;2023-02-11T08:06:14;102321.84;;;14.74
70668;BMP280;58242;51.250;-1.118;2023-02-11T08:08:40;102324.25;;;14.76
70668;BMP280;58242;51.250;-1.118;2023-02-11T08:11:14;102322.25;;;14.81
70668;BMP280;58242;51.250;-1.118;2023-02-11T08:13:40;102327.06;;;14.84
70668;BMP280;58242;51.250;-1.118;2023-02-11T08:16:06;102336.44;;;14.87
70668;BMP280;58242;51.250;-1.118;2023-02-11T08:18:32;102333.47;;;14.88
70668;BMP280;58242;51.250;-1.118;2023-02-11T08:21:08;102322.13;;;14.91
70668;BMP280;58242;51.250;-1.118;2023-02-11T08:23:38;102332.28;;;14.94
70668;BMP280;58242;51.250;-1.118;2023-02-11T08:26:06;102333.28;;;14.98
70668;BMP280;58242;51.250;-1.118;2023-02-11T08:28:37;102335.38;;;15.01
70668;BMP280;58242;51.250;-1.118;2023-02-11T08:31:14;102332.88;;;15.04
70668;BMP280;58242;51.250;-1.118;2023-02-11T08:33:40;102332.59;;;15.06
70668;BMP280;58242;51.250;-1.118;2023-02-11T08:36:10;102334.69;;;15.08
70668;BMP280;58242;51.250;-1.118;2023-02-11T08:38:37;102333.31;;;15.11
70668;BMP280;58242;51.250;-1.118;2023-02-11T08:41:02;102331.09;;;15.13
70668;BMP280;58242;51.250;-1.118;2023-02-11T08:43:28;102328.91;;;15.15
70668;BMP280;58242;51.250;-1.118;2023-02-11T08:45:53;102329.41;;;15.17
70668;BMP280;58242;51.250;-1.118;2023-02-11T08:48:18;102329.91;;;15.19
70668;BMP280;58242;51.250;-1.118;2023-02-11T08:50:44;102329.59;;;15.20
70668;BMP280;58242;51.250;-1.118;2023-02-11T08:53:09;102333.28;;;15.24
70668;BMP280;58242;51.250;-1.118;2023-02-11T08:55:34;102336.78;;;15.24
70668;BMP280;58242;51.250;-1.118;2023-02-11T08:58:00;102326.81;;;15.25
70668;BMP280;58242;51.250;-1.118;2023-02-11T09:00:25;102328.72;;;15.24
70668;BMP280;58242;51.250;-1.118;2023-02-11T09:02:50;102326.50;;;15.26
70668;BMP280;58242;51.250;-1.118;2023-02-11T09:05:15;102330.50;;;15.29
70668;BMP280;58242;51.250;-1.118;2023-02-11T09:07:41;102335.28;;;15.32
70668;BMP280;58242;51.250;-1.118;2023-02-11T09:10:06;102340.88;;;15.35
70668;BMP280;58242;51.250;-1.118;2023-02-11T09:12:32;102335.19;;;15.37
70668;BMP280;58242;51.250;-1.118;2023-02-11T09:14:57;102337.56;;;15.38
70668;BMP280;58242;51.250;-1.118;2023-02-11T09:17:23;102330.28;;;15.39
70668;BMP280;58242;51.250;-1.118;2023-02-11T09:19:48;102343.47;;;15.40
70668;BMP280;58242;51.250;-1.118;2023-02-11T09:22:13;102327.28;;;15.40
70668;BMP280;58242;51.250;-1.118;2023-02-11T09:24:38;102335.06;;;15.41
70668;BMP280;58242;51.250;-1.118;2023-02-11T09:27:04;102342.88;;;15.43
70668;BMP280;58242;51.250;-1.118;2023-02-11T09:29:30;102341.44;;;15.45
70668;BMP280;58242;51.250;-1.118;2023-02-11T09:31:55;102341.16;;;15.47
70668;BMP280;58242;51.250;-1.118;2023-02-11T09:34:20;102344.38;;;15.49
70668;BMP280;58242;51.250;-1.118;2023-02-11T09:36:46;102348.06;;;15.53
70668;BMP280;58242;51.250;-1.118;2023-02-11T09:39:14;102334.78;;;15.56
70668;BMP280;58242;51.250;-1.118;2023-02-11T09:44:26;102335.25;;;15.58
70668;BMP280;58242;51.250;-1.118;2023-02-11T09:46:55;102332.84;;;15.57
70668;BMP280;58242;51.250;-1.118;2023-02-11T09:49:29;102336.66;;;15.56
70668;BMP280;58242;51.250;-1.118;2023-02-11T09:55:16;102336.47;;;15.52
70668;BMP280;58242;51.250;-1.118;2023-02-11T09:57:42;102348.06;;;15.53
70668;BMP280;58242;51.250;-1.118;2023-02-11T10:00:20;102341.88;;;15.52
70668;BMP280;58242;51.250;-1.118;2023-02-11T10:03:10;102347.75;;;15.54
70668;BMP280;58242;51.250;-1.118;2023-02-11T10:08:38;102345.41;;;15.61
70668;BMP280;58242;51.250;-1.118;2023-02-11T10:11:31;102355.81;;;15.67
70668;BMP280;58242;51.250;-1.118;2023-02-11T10:14:23;102347.59;;;15.72
70668;BMP280;58242;51.250;-1.118;2023-02-11T10:22:11;102345.38;;;15.87
70668;BMP280;58242;51.250;-1.118;2023-02-11T10:24:40;102359.84;;;15.91
70668;BMP280;58242;51.250;-1.118;2023-02-11T10:27:16;102360.84;;;15.95
70668;BMP280;58242;51.250;-1.118;2023-02-11T10:29:52;102365.84;;;16.01
70668;BMP280;58242;51.250;-1.118;2023-02-11T10:32:32;102365.44;;;16.08
70668;BMP280;58242;51.250;-1.118;2023-02-11T10:35:02;102358.03;;;16.13
70668;BMP280;58242;51.250;-1.118;2023-02-11T10:37:29;102356.09;;;16.13
70668;BMP280;58242;51.250;-1.118;2023-02-11T10:39:54;102354.72;;;16.16
70668;BMP280;58242;51.250;-1.118;2023-02-11T10:42:20;102357.88;;;16.18
70668;BMP280;58242;51.250;-1.118;2023-02-11T10:44:53;102351.56;;;16.22
70668;BMP280;58242;51.250;-1.118;2023-02-11T10:47:25;102359.06;;;16.25
70668;BMP280;58242;51.250;-1.118;2023-02-11T10:49:52;102364.97;;;16.27
70668;BMP280;58242;51.250;-1.118;2023-02-11T10:52:25;102365.94;;;16.31
70668;BMP280;58242;51.250;-1.118;2023-02-11T10:54:59;102361.19;;;16.36
70668;BMP280;58242;51.250;-1.118;2023-02-11T10:57:29;102356.19;;;16.43
70668;BMP280;58242;51.250;-1.118;2023-02-11T10:59:57;102366.03;;;16.47
70668;BMP280;58242;51.250;-1.118;2023-02-11T11:02:28;102363.84;;;16.49
70668;BMP280;58242;51.250;-1.118;2023-02-11T11:05:06;102361.94;;;16.50
70668;BMP280;58242;51.250;-1.118;2023-02-11T11:07:38;102370.84;;;16.50
70668;BMP280;58242;51.250;-1.118;2023-02-11T11:10:25;102371.63;;;16.51
70668;BMP280;58242;51.250;-1.118;2023-02-11T11:12:51;102370.53;;;16.52
70668;BMP280;58242;51.250;-1.118;2023-02-11T11:15:20;102373.72;;;16.54
70668;BMP280;58242;51.250;-1.118;2023-02-11T11:17:49;102367.97;;;16.47
70668;BMP280;58242;51.250;-1.118;2023-02-11T11:20:23;102368.63;;;16.52
70668;BMP280;58242;51.250;-1.118;2023-02-11T11:22:50;102370.22;;;16.53
70668;BMP280;58242;51.250;-1.118;2023-02-11T11:25:25;102363.53;;;16.51
70668;BMP280;58242;51.250;-1.118;2023-02-11T11:27:53;102365.44;;;16.50
70668;BMP280;58242;51.250;-1.118;2023-02-11T11:30:20;102365.75;;;16.49
70668;BMP280;58242;51.250;-1.118;2023-02-11T11:32:47;102373.22;;;16.52
70668;BMP280;58242;51.250;-1.118;2023-02-11T11:35:26;102365.94;;;16.52
70668;BMP280;58242;51.250;-1.118;2023-02-11T11:37:54;102370.53;;;16.52
70668;BMP280;58242;51.250;-1.118;2023-02-11T11:43:05;102360.34;;;16.49
70668;BMP280;58242;51.250;-1.118;2023-02-11T11:45:31;102364.31;;;16.51
70668;BMP280;58242;51.250;-1.118;2023-02-11T11:50:26;102358.50;;;16.58
70668;BMP280;58242;51.250;-1.118;2023-02-11T11:53:03;102355.47;;;16.59
70668;BMP280;58242;51.250;-1.118;2023-02-11T11:55:37;102355.47;;;16.59
70668;BMP280;58242;51.250;-1.118;2023-02-11T11:58:04;102357.09;;;16.60
70668;BMP280;58242;51.250;-1.118;2023-02-11T12:18:15;102348.28;;;16.76
70668;BMP280;58242;51.250;-1.118;2023-02-11T12:26:12;102346.72;;;16.83
70668;BMP280;58242;51.250;-1.118;2023-02-11T12:31:59;102346.09;;;16.86
70668;BMP280;58242;51.250;-1.118;2023-02-11T12:40:15;102331.16;;;16.80
70668;BMP280;58242;51.250;-1.118;2023-02-11T12:48:53;102344.97;;;16.79
70668;BMP280;58242;51.250;-1.118;2023-02-11T12:54:25;102342.72;;;16.81
70668;BMP280;58242;51.250;-1.118;2023-02-11T13:05:31;102323.16;;;16.76
70668;BMP280;58242;51.250;-1.118;2023-02-11T13:08:18;102328.56;;;16.76
70668;BMP280;58242;51.250;-1.118;2023-02-11T13:10:47;102331.75;;;16.77
70668;BMP280;58242;51.250;-1.118;2023-02-11T13:13:20;102320.94;;;16.77
70668;BMP280;58242;51.250;-1.118;2023-02-11T13:15:50;102326.84;;;16.79
70668;BMP280;58242;51.250;-1.118;2023-02-11T13:18:26;102321.44;;;16.79
70668;BMP280;58242;51.250;-1.118;2023-02-11T13:23:58;102317.78;;;16.76
70668;BMP280;58242;51.250;-1.118;2023-02-11T13:31:52;102300.47;;;16.77
70668;BMP280;58242;51.250;-1.118;2023-02-11T13:40:00;102303.97;;;16.77
70668;BMP280;58242;51.250;-1.118;2023-02-11T13:42:27;102318.22;;;16.77
70668;BMP280;58242;51.250;-1.118;2023-02-11T13:44:53;102329.84;;;16.78
70668;BMP280;58242;51.250;-1.118;2023-02-11T13:47:39;102318.22;;;16.77
70668;BMP280;58242;51.250;-1.118;2023-02-11T13:50:06;102322.53;;;16.78
70668;BMP280;58242;51.250;-1.118;2023-02-11T13:52:36;102325.25;;;16.78
70668;BMP280;58242;51.250;-1.118;2023-02-11T13:55:22;102317.78;;;16.76
70668;BMP280;58242;51.250;-1.118;2023-02-11T14:00:47;102307.09;;;16.71
70668;BMP280;58242;51.250;-1.118;2023-02-11T14:14:13;102308.34;;;16.65
70668;BMP280;58242;51.250;-1.118;2023-02-11T14:19:49;102302.94;;;16.65
70668;BMP280;58242;51.250;-1.118;2023-02-11T14:22:30;102310.41;;;16.68
70668;BMP280;58242;51.250;-1.118;2023-02-11T14:25:15;102306.91;;;16.67
70668;BMP280;58242;51.250;-1.118;2023-02-11T14:27:45;102302.31;;;16.68
70668;BMP280;58242;51.250;-1.118;2023-02-11T14:30:37;102304.50;;;16.66
70668;BMP280;58242;51.250;-1.118;2023-02-11T14:39:03;102306.75;;;16.64
70668;BMP280;58242;51.250;-1.118;2023-02-11T14:41:43;102305.00;;;16.68
70668;BMP280;58242;51.250;-1.118;2023-02-11T14:44:24;102310.88;;;16.70
70668;BMP280;58242;51.250;-1.118;2023-02-11T14:46:52;102299.50;;;16.73
70668;BMP280;58242;51.250;-1.118;2023-02-11T14:49:34;102296.47;;;16.74
70668;BMP280;58242;51.250;-1.118;2023-02-11T14:52:15;102296.16;;;16.76
70668;BMP280;58242;51.250;-1.118;2023-02-11T14:54:43;102287.41;;;16.78
70668;BMP280;58242;51.250;-1.118;2023-02-11T14:57:14;102281.88;;;16.83
70668;BMP280;58242;51.250;-1.118;2023-02-11T14:59:58;102274.25;;;16.85
70668;BMP280;58242;51.250;-1.118;2023-02-11T15:02:28;102281.75;;;16.88
70668;BMP280;58242;51.250;-1.118;2023-02-11T15:04:54;102288.47;;;16.91
70668;BMP280;58242;51.250;-1.118;2023-02-11T15:07:42;102290.22;;;16.95
70668;BMP280;58242;51.250;-1.118;2023-02-11T15:10:16;102286.91;;;16.98
70668;BMP280;58242;51.250;-1.118;2023-02-11T15:12:44;102284.19;;;16.98
70668;BMP280;58242;51.250;-1.118;2023-02-11T15:15:13;102286.91;;;16.98
70668;BMP280;58242;51.250;-1.118;2023-02-11T15:17:40;102281.97;;;17.00
70668;BMP280;58242;51.250;-1.118;2023-02-11T15:20:16;102283.56;;;17.01
70668;BMP280;58242;51.250;-1.118;2023-02-11T15:22:44;102287.38;;;17.00
70668;BMP280;58242;51.250;-1.118;2023-02-11T15:25:15;102281.97;;;17.00
70668;BMP280;58242;51.250;-1.118;2023-02-11T15:27:52;102287.69;;;16.98
70668;BMP280;58242;51.250;-1.118;2023-02-11T15:32:49;102289.09;;;16.96
70668;BMP280;58242;51.250;-1.118;2023-02-11T15:35:15;102290.22;;;16.95
70668;BMP280;58242;51.250;-1.118;2023-02-11T15:37:41;102297.03;;;16.93
70668;BMP280;58242;51.250;-1.118;2023-02-11T15:40:27;102293.56;;;16.92
70668;BMP280;58242;51.250;-1.118;2023-02-11T15:42:58;102293.22;;;16.94
70668;BMP280;58242;51.250;-1.118;2023-02-11T15:45:25;102297.03;;;16.93
70668;BMP280;58242;51.250;-1.118;2023-02-11T15:50:50;102303.06;;;16.90
70668;BMP280;58242;51.250;-1.118;2023-02-11T15:55:41;102299.88;;;16.88
70668;BMP280;58242;51.250;-1.118;2023-02-11T15:58:08;102299.06;;;16.87
70668;BMP280;58242;51.250;-1.118;2023-02-11T16:00:36;102290.47;;;16.85
70668;BMP280;58242;51.250;-1.118;2023-02-11T16:03:02;102300.00;;;16.83
70668;BMP280;58242;51.250;-1.118;2023-02-11T16:05:36;102303.00;;;16.81
70668;BMP280;58242;51.250;-1.118;2023-02-11T16:08:19;102302.03;;;16.77
70668;BMP280;58242;51.250;-1.118;2023-02-11T16:11:03;102291.84;;;16.75
70668;BMP280;58242;51.250;-1.118;2023-02-11T16:13:44;102286.78;;;16.73
70668;BMP280;58242;51.250;-1.118;2023-02-11T16:16:21;102292.78;;;16.70